createdAt,value
2019-03-24T00:01:40.783Z,102491.39
2019-03-24T00:04:02.761Z,102493.30
2019-03-24T00:06:32.816Z,102495.89
2019-03-24T00:09:02.970Z,102493.41
2019-03-24T00:11:34.010Z,102496.92
2019-03-24T00:14:04.236Z,102497.95
2019-03-24T00:16:34.323Z,102498.73
2019-03-24T00:19:04.405Z,102498.34
2019-03-24T00:21:34.464Z,102503.05
2019-03-24T00:24:04.563Z,102497.45
2019-03-24T00:26:34.637Z,102494.56
2019-03-24T00:29:04.678Z,102488.19
2019-03-24T00:31:34.763Z,102489.81
2019-03-24T00:34:04.803Z,102488.61
2019-03-24T00:36:34.886Z,102490.92
2019-03-24T00:39:06.521Z,102484.72
2019-03-24T00:41:36.587Z,102488.97
2019-03-24T00:44:06.621Z,102480.68
2019-03-24T00:46:36.681Z,102481.66
2019-03-24T00:49:06.718Z,102488.14
2019-03-24T00:51:36.771Z,102483.80
2019-03-24T00:54:06.816Z,102479.41
2019-03-24T00:56:36.881Z,102471.16
2019-03-24T00:59:06.929Z,102472.79
2019-03-24T01:01:36.973Z,102473.05
2019-03-24T01:04:07.019Z,102465.48
2019-03-24T01:06:37.061Z,102464.80
2019-03-24T01:09:08.352Z,102464.22
2019-03-24T01:11:38.555Z,102455.70
2019-03-24T01:14:08.671Z,102450.00
2019-03-24T01:16:38.728Z,102448.73
2019-03-24T01:19:08.765Z,102452.73
2019-03-24T01:21:38.822Z,102441.09
2019-03-24T01:24:08.870Z,102450.87
2019-03-24T01:26:38.921Z,102449.02
2019-03-24T01:29:08.960Z,102447.16
2019-03-24T01:31:38.999Z,102440.77
2019-03-24T01:34:09.043Z,102442.47
2019-03-24T01:36:39.091Z,102436.99
2019-03-24T01:39:09.168Z,102433.20
2019-03-24T01:41:39.211Z,102433.34
2019-03-24T01:44:09.265Z,102433.63
2019-03-24T01:46:39.305Z,102432.28
2019-03-24T01:49:09.360Z,102433.56
2019-03-24T01:51:39.404Z,102431.53
2019-03-24T01:54:09.464Z,102427.59
2019-03-24T01:56:39.515Z,102431.21
2019-03-24T01:59:09.583Z,102429.02
2019-03-24T02:01:39.624Z,102425.80
2019-03-24T02:04:09.691Z,102432.16
2019-03-24T02:06:39.740Z,102426.57
2019-03-24T02:09:10.686Z,102428.33
2019-03-24T02:11:40.817Z,102426.75
2019-03-24T02:14:10.887Z,102422.19
2019-03-24T02:16:40.931Z,102423.00
2019-03-24T02:19:10.999Z,102418.75
2019-03-24T02:21:41.064Z,102410.95
2019-03-24T02:24:11.094Z,102415.94
2019-03-24T02:26:41.142Z,102419.63
2019-03-24T02:29:11.180Z,102416.33
2019-03-24T02:31:41.240Z,102419.95
2019-03-24T02:34:11.288Z,102414.39
2019-03-24T02:36:42.312Z,102414.11
2019-03-24T02:39:12.364Z,102416.55
2019-03-24T02:41:42.429Z,102414.39
2019-03-24T02:44:12.456Z,102415.38
2019-03-24T02:46:42.528Z,102414.48
2019-03-24T02:49:12.566Z,102415.81
2019-03-24T02:51:42.630Z,102413.94
2019-03-24T02:54:12.674Z,102418.73
2019-03-24T02:56:42.754Z,102417.95
2019-03-24T02:59:12.831Z,102413.03
2019-03-24T03:01:42.905Z,102402.41
2019-03-24T03:04:12.987Z,102402.09
2019-03-24T03:06:43.031Z,102398.95
2019-03-24T03:09:13.084Z,102397.78
2019-03-24T03:11:43.128Z,102403.25
2019-03-24T03:14:13.228Z,102401.20
2019-03-24T03:16:43.272Z,102395.14
2019-03-24T03:19:13.344Z,102388.34
2019-03-24T03:21:43.386Z,102388.41
2019-03-24T03:24:13.513Z,102385.42
2019-03-24T03:26:43.557Z,102385.14
2019-03-24T03:29:13.602Z,102388.63
2019-03-24T03:31:43.708Z,102386.30
2019-03-24T03:34:13.781Z,102385.25
2019-03-24T03:36:43.862Z,102384.93
2019-03-24T03:39:13.916Z,102382.29
2019-03-24T03:41:43.975Z,102384.44
2019-03-24T03:44:14.028Z,102373.83
2019-03-24T03:46:52.393Z,102378.80
2019-03-24T03:49:16.812Z,102367.95
2019-03-24T03:51:46.886Z,102366.66
2019-03-24T03:54:16.923Z,102364.23
2019-03-24T03:56:46.983Z,102364.12
2019-03-24T03:59:17.022Z,102365.28
2019-03-24T04:01:47.105Z,102361.64
2019-03-24T04:04:17.145Z,102364.30
2019-03-24T04:06:47.219Z,102364.45
2019-03-24T04:09:17.281Z,102366.11
2019-03-24T04:11:47.346Z,102366.77
2019-03-24T04:14:17.415Z,102361.58
2019-03-24T04:16:48.404Z,102361.75
2019-03-24T04:19:18.466Z,102353.75
2019-03-24T04:21:48.513Z,102357.11
2019-03-24T04:24:18.561Z,102358.95
2019-03-24T04:26:49.135Z,102357.28
2019-03-24T04:29:19.177Z,102360.32
2019-03-24T04:31:49.279Z,102354.09
2019-03-24T04:34:19.351Z,102354.98
2019-03-24T04:36:49.398Z,102351.39
2019-03-24T04:39:19.455Z,102353.44
2019-03-24T04:41:49.508Z,102349.52
2019-03-24T04:44:19.569Z,102348.63
2019-03-24T04:46:49.618Z,102358.88
2019-03-24T04:49:19.690Z,102357.89
2019-03-24T04:51:50.845Z,102353.20
2019-03-24T04:54:20.950Z,102349.56
2019-03-24T04:56:51.145Z,102345.74
2019-03-24T04:59:21.162Z,102341.81
2019-03-24T05:01:51.309Z,102338.89
2019-03-24T05:04:21.370Z,102343.46
2019-03-24T05:06:51.695Z,102341.72
2019-03-24T05:09:22.017Z,102293.03
2019-03-24T05:11:52.089Z,102352.09
2019-03-24T05:14:22.227Z,102356.24
2019-03-24T05:16:53.158Z,102352.44
2019-03-24T05:19:23.216Z,102344.15
2019-03-24T05:21:53.271Z,102337.88
2019-03-24T05:24:23.422Z,102336.98
2019-03-24T05:26:53.472Z,102334.78
2019-03-24T05:29:24.528Z,102328.44
2019-03-24T05:31:54.564Z,102329.98
2019-03-24T05:34:25.292Z,102326.28
2019-03-24T05:36:55.345Z,102330.39
2019-03-24T05:39:26.390Z,102328.50
2019-03-24T05:41:56.418Z,102327.70
2019-03-24T05:44:26.505Z,102328.63
2019-03-24T05:46:56.583Z,102333.71
2019-03-24T05:49:26.640Z,102334.09
2019-03-24T05:51:56.713Z,102338.64
2019-03-24T05:54:26.750Z,102330.47
2019-03-24T05:56:56.934Z,102328.36
2019-03-24T05:59:26.983Z,102320.44
2019-03-24T06:01:57.029Z,102320.83
2019-03-24T06:04:27.087Z,102317.17
2019-03-24T06:06:57.145Z,102316.16
2019-03-24T06:09:27.224Z,102316.14
2019-03-24T06:11:57.291Z,102317.95
2019-03-24T06:14:27.444Z,102313.30
2019-03-24T06:16:57.514Z,102306.52
2019-03-24T06:19:27.568Z,102310.77
2019-03-24T06:21:57.640Z,102305.83
2019-03-24T06:24:27.689Z,102312.91
2019-03-24T06:26:57.768Z,102315.08
2019-03-24T06:29:27.823Z,102315.80
2019-03-24T06:31:57.898Z,102318.37
2019-03-24T06:34:27.979Z,102322.83
2019-03-24T06:36:58.038Z,102321.98
2019-03-24T06:39:28.088Z,102318.47
2019-03-24T06:41:58.158Z,102307.79
2019-03-24T06:44:28.220Z,102311.27
2019-03-24T06:46:58.364Z,102305.58
2019-03-24T06:49:28.455Z,102304.95
2019-03-24T06:51:58.503Z,102298.94
2019-03-24T06:54:28.576Z,102294.53
2019-03-24T06:56:58.652Z,102297.66
2019-03-24T06:59:28.731Z,102290.73
2019-03-24T07:01:58.802Z,102284.66
2019-03-24T07:04:28.861Z,102283.77
2019-03-24T07:06:58.964Z,102274.81
2019-03-24T07:09:29.009Z,102269.29
2019-03-24T07:12:00.163Z,102266.38
2019-03-24T07:14:30.342Z,102274.29
2019-03-24T07:17:00.387Z,102276.73
2019-03-24T07:19:30.475Z,102275.81
2019-03-24T07:22:00.540Z,102273.36
2019-03-24T07:24:31.577Z,102269.75
2019-03-24T07:27:01.659Z,102273.95
2019-03-24T07:29:31.753Z,102270.80
2019-03-24T07:32:01.822Z,102280.94
2019-03-24T07:34:31.862Z,102275.53
2019-03-24T07:37:01.935Z,102274.53
2019-03-24T07:39:31.978Z,102274.09
2019-03-24T07:42:02.054Z,102283.00
2019-03-24T07:44:32.110Z,102280.75
2019-03-24T07:47:06.321Z,102278.86
2019-03-24T07:49:36.450Z,102288.97
2019-03-24T07:52:06.490Z,102286.52
2019-03-24T07:54:36.628Z,102287.91
2019-03-24T07:57:06.681Z,102289.06
2019-03-24T07:59:36.777Z,102286.25
2019-03-24T08:02:07.759Z,102289.75
2019-03-24T08:04:38.879Z,102272.12
2019-03-24T08:07:08.923Z,102298.31
2019-03-24T08:09:38.980Z,102292.44
2019-03-24T08:12:09.081Z,102289.36
2019-03-24T08:14:39.136Z,102286.84
2019-03-24T08:17:09.203Z,102285.84
2019-03-24T08:19:39.243Z,102283.86
2019-03-24T08:22:09.320Z,102292.17
2019-03-24T08:24:39.354Z,102287.33
2019-03-24T08:27:09.414Z,102278.52
2019-03-24T08:29:39.467Z,102267.47
2019-03-24T08:32:09.557Z,102271.61
2019-03-24T08:34:39.603Z,102270.09
2019-03-24T08:37:09.686Z,102267.19
2019-03-24T08:39:40.529Z,102256.50
2019-03-24T08:42:10.653Z,102245.14
2019-03-24T08:44:40.704Z,102259.66
2019-03-24T08:47:10.840Z,102257.60
2019-03-24T08:49:40.860Z,102253.13
2019-03-24T08:52:10.911Z,102233.69
2019-03-24T08:54:40.998Z,102234.16
2019-03-24T08:57:11.045Z,102235.60
2019-03-24T08:59:41.125Z,102245.39
2019-03-24T09:02:11.353Z,102240.39
2019-03-24T09:04:42.535Z,102234.33
2019-03-24T09:07:12.608Z,102233.14
2019-03-24T09:09:42.766Z,102233.28
2019-03-24T09:12:12.838Z,102226.80
2019-03-24T09:14:42.901Z,102230.52
2019-03-24T09:17:12.969Z,102221.05
2019-03-24T09:19:43.017Z,102205.55
2019-03-24T09:22:13.094Z,102206.74
2019-03-24T09:24:43.171Z,102210.33
2019-03-24T09:27:13.271Z,102198.97
2019-03-24T09:29:43.321Z,102197.12
2019-03-24T09:34:55.791Z,102194.44
2019-03-24T09:37:25.847Z,102197.59
2019-03-24T09:39:55.938Z,102190.88
2019-03-24T09:42:26.726Z,102183.70
2019-03-24T09:44:56.808Z,102180.91
2019-03-24T09:47:26.969Z,102180.65
2019-03-24T09:49:57.067Z,102180.04
2019-03-24T09:52:27.174Z,102181.48
2019-03-24T09:54:57.380Z,102180.39
2019-03-24T09:57:27.571Z,102179.80
2019-03-24T09:59:57.686Z,102183.49
2019-03-24T10:02:27.808Z,102182.58
2019-03-24T10:04:57.884Z,102183.33
2019-03-24T10:07:27.967Z,102165.03
2019-03-24T10:09:58.036Z,102156.38
2019-03-24T10:12:28.129Z,102151.73
2019-03-24T10:14:58.227Z,102151.34
2019-03-24T10:17:28.323Z,102151.19
2019-03-24T10:19:59.373Z,102156.08
2019-03-24T10:22:29.460Z,102148.34
2019-03-24T10:24:59.536Z,102144.63
2019-03-24T10:27:29.631Z,102148.21
2019-03-24T10:29:59.743Z,102147.19
2019-03-24T10:32:29.870Z,102135.03
2019-03-24T10:34:59.933Z,102137.48
2019-03-24T10:37:30.158Z,102132.71
2019-03-24T10:40:00.370Z,102128.32
2019-03-24T10:42:30.418Z,102138.28
2019-03-24T10:45:01.597Z,102137.70
2019-03-24T10:47:32.641Z,102141.72
2019-03-24T10:50:02.740Z,102141.78
2019-03-24T10:52:32.841Z,102131.78
2019-03-24T10:55:02.922Z,102131.38
2019-03-24T10:57:32.975Z,102126.64
2019-03-24T11:00:04.357Z,102112.80
2019-03-24T11:02:34.486Z,102108.78
2019-03-24T11:05:05.301Z,102092.66
2019-03-24T11:07:37.120Z,102077.65
2019-03-24T11:10:08.073Z,102074.88
2019-03-24T11:12:38.228Z,102067.39
2019-03-24T11:15:09.360Z,102064.52
2019-03-24T11:17:39.752Z,102068.16
2019-03-24T11:20:10.082Z,102070.11
2019-03-24T11:22:40.703Z,102064.27
2019-03-24T11:25:11.303Z,102060.16
2019-03-24T11:27:41.877Z,102067.02
2019-03-24T11:30:13.451Z,102066.80
2019-03-24T11:32:43.586Z,102054.58
2019-03-24T11:35:13.944Z,102051.75
2019-03-24T11:37:44.021Z,102044.40
2019-03-24T11:40:14.285Z,102054.47
2019-03-24T11:42:45.408Z,102053.30
2019-03-24T11:45:16.733Z,102047.47
2019-03-24T11:47:46.797Z,102044.86
2019-03-24T11:50:17.010Z,102038.66
2019-03-24T11:52:47.082Z,102040.69
2019-03-24T11:55:17.302Z,102036.73
2019-03-24T11:57:47.428Z,102036.97
2019-03-24T12:00:20.020Z,102037.69
2019-03-24T12:02:50.118Z,102035.44
2019-03-24T12:05:20.271Z,102037.63
2019-03-24T12:07:51.993Z,102033.64
2019-03-24T12:10:22.129Z,102031.46
2019-03-24T12:12:52.209Z,102032.98
2019-03-24T12:15:22.361Z,102030.95
2019-03-24T12:17:52.452Z,102021.09
2019-03-24T12:20:22.550Z,102023.56
2019-03-24T12:22:53.753Z,102023.19
2019-03-24T12:25:23.815Z,102011.67
2019-03-24T12:27:53.898Z,102008.22
2019-03-24T12:30:24.012Z,102006.05
2019-03-24T12:32:54.124Z,101993.57
2019-03-24T12:35:24.182Z,101989.32
2019-03-24T12:37:54.379Z,101983.00
2019-03-24T12:40:24.463Z,101979.95
2019-03-24T12:42:54.547Z,101979.45
2019-03-24T12:45:24.609Z,101986.12
2019-03-24T12:47:54.743Z,101983.05
2019-03-24T12:50:31.363Z,101979.02
2019-03-24T12:52:56.861Z,101979.41
2019-03-24T12:55:26.916Z,101979.51
2019-03-24T12:57:57.156Z,101979.10
2019-03-24T13:00:38.573Z,101980.13
2019-03-24T13:03:08.743Z,101982.97
2019-03-24T13:05:38.913Z,101977.23
2019-03-24T13:08:14.628Z,101973.63
2019-03-24T13:10:45.679Z,101971.16
2019-03-24T13:13:15.876Z,101975.13
2019-03-24T13:15:46.110Z,101971.88
2019-03-24T13:18:16.196Z,101974.10
2019-03-24T13:20:46.377Z,101973.05
2019-03-24T13:23:16.462Z,101972.17
2019-03-24T13:25:46.563Z,101960.31
2019-03-24T13:28:16.674Z,101956.70
2019-03-24T13:30:47.429Z,101944.88
2019-03-24T13:33:17.581Z,101952.05
2019-03-24T13:35:50.224Z,101944.38
2019-03-24T13:38:20.301Z,101942.79
2019-03-24T13:40:50.382Z,101935.65
2019-03-24T13:43:20.458Z,101924.92
2019-03-24T13:45:50.549Z,101923.01
2019-03-24T13:48:20.611Z,101923.66
2019-03-24T13:50:50.693Z,101913.83
2019-03-24T13:53:20.774Z,101909.03
2019-03-24T13:55:50.833Z,101908.50
2019-03-24T13:58:20.922Z,101910.99
2019-03-24T14:00:51.015Z,101909.05
2019-03-24T14:03:21.106Z,101900.88
2019-03-24T14:05:51.154Z,101903.70
2019-03-24T14:08:21.264Z,101895.38
2019-03-24T14:10:51.322Z,101899.84
2019-03-24T14:13:21.487Z,101900.03
2019-03-24T14:15:51.628Z,101894.47
2019-03-24T14:18:21.712Z,101888.81
2019-03-24T14:20:51.790Z,101889.05
2019-03-24T14:23:21.940Z,101892.41
2019-03-24T14:25:52.042Z,101896.11
2019-03-24T14:28:22.132Z,101893.17
2019-03-24T14:30:52.300Z,101882.91
2019-03-24T14:33:22.380Z,101886.75
2019-03-24T14:35:52.485Z,101877.18
2019-03-24T14:38:22.626Z,101875.17
2019-03-24T14:40:52.669Z,101876.98
2019-03-24T14:43:22.755Z,101877.98
2019-03-24T14:45:52.803Z,101878.60
2019-03-24T14:48:22.896Z,101876.86
2019-03-24T14:50:54.850Z,101861.97
2019-03-24T14:53:24.726Z,101869.19
2019-03-24T14:55:54.793Z,101868.57
2019-03-24T14:58:24.863Z,101860.94
2019-03-24T15:00:54.948Z,101864.44
2019-03-24T15:03:25.025Z,101860.66
2019-03-24T15:05:55.117Z,101859.96
2019-03-24T15:08:25.171Z,101848.68
2019-03-24T15:10:55.238Z,101844.97
2019-03-24T15:13:25.309Z,101846.59
2019-03-24T15:15:55.469Z,101843.33
2019-03-24T15:18:25.522Z,101831.33
2019-03-24T15:21:05.092Z,101832.63
2019-03-24T15:23:27.434Z,101834.50
2019-03-24T15:25:57.471Z,101832.69
2019-03-24T15:28:27.556Z,101823.57
2019-03-24T15:30:57.584Z,101824.73
2019-03-24T15:33:27.647Z,101817.54
2019-03-24T15:35:57.714Z,101812.14
2019-03-24T15:38:27.900Z,101815.80
2019-03-24T15:40:57.934Z,101808.65
2019-03-24T15:43:28.115Z,101813.02
2019-03-24T15:45:58.183Z,101806.62
2019-03-24T15:48:28.257Z,101809.98
2019-03-24T15:50:58.337Z,101807.55
2019-03-24T15:53:28.495Z,101809.50
2019-03-24T15:55:58.534Z,101805.29
2019-03-24T15:58:28.603Z,101805.52
2019-03-24T16:00:58.691Z,101807.16
2019-03-24T16:03:28.730Z,101807.09
2019-03-24T16:05:58.868Z,101800.42
2019-03-24T16:08:28.870Z,101798.92
2019-03-24T16:10:58.965Z,101794.36
2019-03-24T16:13:29.015Z,101789.37
2019-03-24T16:15:59.102Z,101789.37
2019-03-24T16:18:29.149Z,101785.83
2019-03-24T16:20:59.307Z,101783.53
2019-03-24T16:23:29.384Z,101785.81
2019-03-24T16:25:59.469Z,101778.72
2019-03-24T16:28:29.517Z,101784.12
2019-03-24T16:30:59.583Z,101788.63
2019-03-24T16:33:29.639Z,101770.78
2019-03-24T16:35:59.733Z,101770.78
2019-03-24T16:38:29.779Z,101775.30
2019-03-24T16:40:59.828Z,101772.36
2019-03-24T16:43:29.920Z,101769.50
2019-03-24T16:46:00.054Z,101768.98
2019-03-24T16:48:36.853Z,101770.32
2019-03-24T16:51:01.900Z,101774.16
2019-03-24T16:53:32.103Z,101763.32
2019-03-24T16:56:02.147Z,101764.25
2019-03-24T16:58:32.255Z,101766.92
2019-03-24T17:01:02.305Z,101767.09
2019-03-24T17:03:32.412Z,101765.33
2019-03-24T17:06:02.473Z,101760.62
2019-03-24T17:08:32.556Z,101756.27
2019-03-24T17:11:03.059Z,101750.41
2019-03-24T17:13:33.814Z,101758.09
2019-03-24T17:16:03.859Z,101740.62
2019-03-24T17:18:33.937Z,101745.82
2019-03-24T17:21:04.104Z,101740.19
2019-03-24T17:23:34.193Z,101734.39
2019-03-24T17:26:04.308Z,101736.33
2019-03-24T17:28:34.399Z,101738.14
2019-03-24T17:31:04.464Z,101741.05
2019-03-24T17:33:34.535Z,101742.05
2019-03-24T17:36:04.589Z,101735.39
2019-03-24T17:38:34.731Z,101735.39
2019-03-24T17:41:04.775Z,101738.88
2019-03-24T17:43:34.867Z,101737.48
2019-03-24T17:46:07.690Z,101737.87
2019-03-24T17:48:37.781Z,101738.30
2019-03-24T17:51:07.840Z,101737.66
2019-03-24T17:53:37.896Z,101738.02
2019-03-24T17:56:08.011Z,101727.59
2019-03-24T17:58:38.024Z,101732.20
2019-03-24T18:01:09.061Z,101729.94
2019-03-24T18:03:39.125Z,101730.87
2019-03-24T18:06:09.259Z,101734.70
2019-03-24T18:08:39.434Z,101729.50
2019-03-24T18:11:09.495Z,101725.95
2019-03-24T18:13:39.549Z,101731.19
2019-03-24T18:16:09.624Z,101726.55
2019-03-24T18:18:39.686Z,101725.14
2019-03-24T18:21:09.786Z,101730.20
2019-03-24T18:23:39.950Z,101726.22
2019-03-24T18:26:10.044Z,101724.73
2019-03-24T18:28:41.166Z,101722.23
2019-03-24T18:31:12.465Z,101722.55
2019-03-24T18:33:42.644Z,101720.47
2019-03-24T18:36:13.771Z,101718.72
2019-03-24T18:38:45.258Z,101713.87
2019-03-24T18:41:15.313Z,101711.81
2019-03-24T18:43:45.446Z,101715.70
2019-03-24T18:46:16.468Z,101716.02
2019-03-24T18:48:46.552Z,101715.41
2019-03-24T18:51:16.634Z,101714.13
2019-03-24T18:53:46.803Z,101709.21
2019-03-24T18:56:16.888Z,101713.51
2019-03-24T18:58:46.965Z,101706.38
2019-03-24T19:01:17.125Z,101702.95
2019-03-24T19:03:47.179Z,101703.14
2019-03-24T19:06:17.317Z,101701.64
2019-03-24T19:08:47.542Z,101701.33
2019-03-24T19:11:17.629Z,101677.30
2019-03-24T19:13:47.707Z,101696.02
2019-03-24T19:16:17.840Z,101691.45
2019-03-24T19:18:47.916Z,101689.42
2019-03-24T19:21:18.182Z,101690.64
2019-03-24T19:23:48.387Z,101684.52
2019-03-24T19:26:18.497Z,101677.63
2019-03-24T19:28:48.606Z,101682.68
2019-03-24T19:31:18.777Z,101685.56
2019-03-24T19:33:48.906Z,101687.53
2019-03-24T19:36:18.997Z,101687.79
2019-03-24T19:38:49.869Z,101676.95
2019-03-24T19:41:19.946Z,101680.50
2019-03-24T19:43:50.028Z,101681.78
2019-03-24T19:46:20.281Z,101679.16
2019-03-24T19:48:50.379Z,101664.30
2019-03-24T19:51:20.442Z,101679.57
2019-03-24T19:53:50.635Z,101679.91
2019-03-24T19:56:20.701Z,101682.47
2019-03-24T19:58:50.917Z,101678.81
2019-03-24T20:01:20.978Z,101675.65
2019-03-24T20:03:51.082Z,101675.64
2019-03-24T20:06:21.150Z,101670.87
2019-03-24T20:08:51.329Z,101677.30
2019-03-24T20:11:21.395Z,101674.20
2019-03-24T20:13:51.492Z,101681.69
2019-03-24T20:16:21.631Z,101671.75
2019-03-24T20:18:52.025Z,101671.55
2019-03-24T20:21:22.166Z,101660.94
2019-03-24T20:23:52.217Z,101662.25
2019-03-24T20:26:22.318Z,101654.84
2019-03-24T20:28:53.343Z,101647.76
2019-03-24T20:31:23.430Z,101642.02
2019-03-24T20:33:53.547Z,101642.19
2019-03-24T20:36:23.614Z,101641.38
2019-03-24T20:38:53.709Z,101636.48
2019-03-24T20:41:23.793Z,101640.53
2019-03-24T20:43:53.889Z,101632.58
2019-03-24T20:46:23.999Z,101639.87
2019-03-24T20:48:54.056Z,101639.87
2019-03-24T20:51:24.126Z,101631.91
2019-03-24T20:53:54.218Z,101632.45
2019-03-24T20:56:24.708Z,101631.76
2019-03-24T20:58:54.780Z,101611.06
2019-03-24T21:01:24.890Z,101629.13
2019-03-24T21:03:54.936Z,101619.42
2019-03-24T21:06:25.021Z,101616.16
2019-03-24T21:08:55.086Z,101612.23
2019-03-24T21:11:25.159Z,101627.58
2019-03-24T21:13:55.214Z,101616.33
2019-03-24T21:16:25.638Z,101609.66
2019-03-24T21:18:55.753Z,101608.62
2019-03-24T21:21:25.829Z,101603.02
2019-03-24T21:23:55.897Z,101597.42
2019-03-24T21:26:25.977Z,101594.93
2019-03-24T21:28:56.021Z,101593.82
2019-03-24T21:31:26.096Z,101583.83
2019-03-24T21:33:56.166Z,101582.91
2019-03-24T21:36:26.242Z,101586.40
2019-03-24T21:38:56.290Z,101581.89
2019-03-24T21:41:26.375Z,101577.64
2019-03-24T21:43:56.424Z,101573.53
2019-03-24T21:46:26.516Z,101565.79
2019-03-24T21:48:57.701Z,101560.27
2019-03-24T21:51:29.001Z,101556.88
2019-03-24T21:53:59.084Z,101554.33
2019-03-24T21:56:29.187Z,101548.77
2019-03-24T21:58:59.292Z,101555.79
2019-03-24T22:01:29.366Z,101550.55
2019-03-24T22:03:59.497Z,101547.21
2019-03-24T22:06:29.571Z,101554.71
2019-03-24T22:09:00.019Z,101542.75
2019-03-24T22:11:30.110Z,101538.11
2019-03-24T22:14:00.174Z,101542.98
2019-03-24T22:16:31.223Z,101551.67
2019-03-24T22:19:01.293Z,101541.90
2019-03-24T22:21:31.399Z,101546.07
2019-03-24T22:24:01.491Z,101550.80
2019-03-24T22:26:31.589Z,101543.03
2019-03-24T22:29:06.288Z,101542.89
2019-03-24T22:31:36.281Z,101529.53
2019-03-24T22:34:06.328Z,101530.31
2019-03-24T22:36:36.448Z,101528.87
2019-03-24T22:39:07.658Z,101526.51
2019-03-24T22:41:37.747Z,101529.18
2019-03-24T22:44:07.780Z,101521.27
2019-03-24T22:46:37.819Z,101510.95
2019-03-24T22:49:07.878Z,101510.28
2019-03-24T22:51:37.924Z,101502.75
2019-03-24T22:54:08.002Z,101493.59
2019-03-24T22:56:38.082Z,101490.53
2019-03-24T22:59:08.120Z,101491.33
2019-03-24T23:01:38.166Z,101487.20
2019-03-24T23:04:08.243Z,101483.85
2019-03-24T23:06:38.285Z,101474.69
2019-03-24T23:09:09.319Z,101471.64
2019-03-24T23:11:39.522Z,101464.80
2019-03-24T23:14:09.578Z,101463.34
2019-03-24T23:16:39.625Z,101456.65
2019-03-24T23:19:09.688Z,101446.14
2019-03-24T23:21:39.738Z,101441.93
2019-03-24T23:24:15.451Z,101433.99
2019-03-24T23:26:41.532Z,101428.95
2019-03-24T23:29:11.606Z,101419.94
2019-03-24T23:31:41.639Z,101412.65
2019-03-24T23:34:11.774Z,101410.31
2019-03-24T23:36:41.836Z,101410.34
2019-03-24T23:39:11.937Z,101406.25
2019-03-24T23:41:41.975Z,101400.56
2019-03-24T23:44:12.023Z,101403.50
2019-03-24T23:46:42.072Z,101392.67
2019-03-24T23:49:12.133Z,101389.87
2019-03-24T23:51:42.190Z,101396.20
2019-03-24T23:54:12.248Z,101393.56
2019-03-24T23:56:42.391Z,101390.11
2019-03-24T23:59:12.442Z,101392.22
